Hlavní strana
METAR-TAF:

METAR-TAF

Letiště :

Johannesburg, Jihoafrická republika

Letiště Johannesburg

zeměpisná šířka: 26-08S, zeměpisná délka: 028-14E, výška: 1694 m

Aktuální stav počasí

Zpráva byla vytvořena před 19 minutami, v 22:00 UTC
Severní vítr 6 kt, proměnlivý mezi západním a severoseverovýchodním
Teplota 17°C
Vlhkost vzduchu 48%
Tlak 1026 hPa
Viditelnost 10 km a více
Žádná oblačnost pod 1500 m, nevyskytují se cumulonimby.

METAR: FAOR 252200Z 35006KT 280V030 CAVOK 17/06 Q1026 NOSIG

Čas: 00:19 (22:19 UTC)

Předpověď počasí

Zpráva byla vytvořena před 6 hodinami a 19 minutami, v 16:00 UTC
Předpověď platná od 25 v 18 UTC do 26 v 24 UTC
Severní vítr 7 kt
Viditelnost 10 km a více
Žádná oblačnost pod 1500 m, nevyskytují se cumulonimby.
Změna
od 26 v 07 UTC do 26 v 09 UTC
Západoseverozápadní vítr 10 kt
Změna
od 26 v 18 UTC do 26 v 20 UTC
vítr z různých směrů 3 kt

TAF: FAOR 251600Z 2518/2624 01007KT CAVOK BECMG 2607/2609 29010KT BECMG 2618/2620 VRB03KT TX24/2612Z TN13/2604Z

Stav a předpovědi počasí z více než 4 000 letišť (zprávy METAR a TAF).

Červené a žluté tečky na mapě představují dostupné meteorologické stanice.

Když kurzor umístíte na tečku, zobrazí se název stanice.

Pak kliknutím zobrazíte stav a předpověď počasí.

Chcete-li změnit mapu, kliknutím na zelené tlačítko se znaménkem +mapu přiblížíte, kliknutím na zelené tlačítko se znaménkem – mapu oddálíte a kliknutím na zelené šipky přejdete na sousední mapy.


METAR-TAF: